createdAt,value
2018-12-11T00:00:58.416Z,4.60
2018-12-11T00:02:06.081Z,4.60
2018-12-11T00:03:13.125Z,4.60
2018-12-11T00:04:19.311Z,4.60
2018-12-11T00:05:23.519Z,4.60
2018-12-11T00:06:27.678Z,4.60
2018-12-11T00:07:32.765Z,4.60
2018-12-11T00:08:36.960Z,4.60
2018-12-11T00:09:41.270Z,4.50
2018-12-11T00:10:45.565Z,4.60
2018-12-11T00:11:49.846Z,4.50
2018-12-11T00:12:53.951Z,4.60
2018-12-11T00:13:58.693Z,4.60
2018-12-11T00:15:03.007Z,4.60
2018-12-11T00:16:07.282Z,4.50
2018-12-11T00:17:11.435Z,4.60
2018-12-11T00:18:15.698Z,4.60
2018-12-11T00:19:20.003Z,4.60
2018-12-11T00:20:24.165Z,4.60
2018-12-11T00:21:28.410Z,4.60
2018-12-11T00:22:33.288Z,4.60
2018-12-11T00:23:37.737Z,4.60
2018-12-11T00:24:41.882Z,4.60
2018-12-11T00:25:46.208Z,4.60
2018-12-11T00:26:51.541Z,4.60
2018-12-11T00:27:55.963Z,4.60
2018-12-11T00:29:00.339Z,4.60
2018-12-11T00:30:05.386Z,4.60
2018-12-11T00:31:09.695Z,4.60
2018-12-11T00:32:13.989Z,4.60
2018-12-11T00:33:19.076Z,4.60
2018-12-11T00:34:23.477Z,4.60
2018-12-11T00:35:27.789Z,4.60
2018-12-11T00:36:32.246Z,4.60
2018-12-11T00:37:36.559Z,4.60
2018-12-11T00:38:40.712Z,4.50
2018-12-11T00:39:45.117Z,4.60
2018-12-11T00:40:49.181Z,4.50
2018-12-11T00:41:53.353Z,4.50
2018-12-11T00:42:57.452Z,4.50
2018-12-11T00:44:01.686Z,4.50
2018-12-11T00:45:06.680Z,4.50
2018-12-11T00:46:10.817Z,4.50
2018-12-11T00:47:15.018Z,4.50
2018-12-11T00:48:19.171Z,4.50
2018-12-11T00:49:23.420Z,4.50
2018-12-11T00:50:27.573Z,4.40
2018-12-11T00:51:31.776Z,4.40
2018-12-11T00:52:36.365Z,4.40
2018-12-11T00:53:40.709Z,4.40
2018-12-11T00:54:44.887Z,4.40
2018-12-11T00:55:49.073Z,4.40
2018-12-11T00:56:53.465Z,4.40
2018-12-11T00:57:57.611Z,4.40
2018-12-11T00:59:01.873Z,4.40
2018-12-11T01:00:08.161Z,4.40
2018-12-11T01:01:13.582Z,4.40
2018-12-11T01:02:17.649Z,4.40
2018-12-11T01:03:22.076Z,4.40
2018-12-11T01:04:26.173Z,4.40
2018-12-11T01:05:30.575Z,4.40
2018-12-11T01:06:35.317Z,4.40
2018-12-11T01:07:39.833Z,4.30
2018-12-11T01:08:43.952Z,4.30
2018-12-11T01:09:48.174Z,4.30
2018-12-11T01:10:52.423Z,4.30
2018-12-11T01:11:56.523Z,4.30
2018-12-11T01:13:01.011Z,4.30
2018-12-11T01:14:05.155Z,4.30
2018-12-11T01:15:09.581Z,4.30
2018-12-11T01:16:13.741Z,4.30
2018-12-11T01:17:17.895Z,4.30
2018-12-11T01:18:22.119Z,4.30
2018-12-11T01:19:26.225Z,4.30
2018-12-11T01:20:30.484Z,4.30
2018-12-11T01:21:35.049Z,4.30
2018-12-11T01:22:40.064Z,4.30
2018-12-11T01:23:44.232Z,4.20
2018-12-11T01:24:48.559Z,4.20
2018-12-11T01:25:52.690Z,4.20
2018-12-11T01:26:56.936Z,4.30
2018-12-11T01:28:01.165Z,4.20
2018-12-11T01:29:05.349Z,4.30
2018-12-11T01:30:09.886Z,4.30
2018-12-11T01:31:14.110Z,4.30
2018-12-11T01:32:18.418Z,4.30
2018-12-11T01:33:22.543Z,4.30
2018-12-11T01:34:27.155Z,4.20
2018-12-11T01:35:31.341Z,4.30
2018-12-11T01:36:36.198Z,4.20
2018-12-11T01:37:40.281Z,4.20
2018-12-11T01:38:44.589Z,4.20
2018-12-11T01:39:48.739Z,4.20
2018-12-11T01:40:53.937Z,4.20
2018-12-11T01:41:58.192Z,4.20
2018-12-11T01:43:02.291Z,4.20
2018-12-11T01:44:06.610Z,4.20
2018-12-11T01:45:10.747Z,4.20
2018-12-11T01:46:15.028Z,4.20
2018-12-11T01:47:19.175Z,4.20
2018-12-11T01:48:23.504Z,4.20
2018-12-11T01:49:27.839Z,4.20
2018-12-11T01:50:31.964Z,4.20
2018-12-11T01:51:36.834Z,4.20
2018-12-11T01:52:40.981Z,4.20
2018-12-11T01:53:45.276Z,4.20
2018-12-11T01:54:49.348Z,4.20
2018-12-11T01:55:53.635Z,4.20
2018-12-11T01:56:57.803Z,4.10
2018-12-11T01:58:01.992Z,4.10
2018-12-11T01:59:06.266Z,4.10
2018-12-11T02:00:10.389Z,4.10
2018-12-11T02:01:16.175Z,4.10
2018-12-11T02:02:20.343Z,4.10
2018-12-11T02:03:24.742Z,4.20
2018-12-11T02:04:28.860Z,4.10
2018-12-11T02:05:32.990Z,4.10
2018-12-11T02:06:37.809Z,4.10
2018-12-11T02:07:42.013Z,4.10
2018-12-11T02:08:46.343Z,4.10
2018-12-11T02:09:50.403Z,4.10
2018-12-11T02:10:54.766Z,4.10
2018-12-11T02:11:58.922Z,4.10
2018-12-11T02:13:03.837Z,4.10
2018-12-11T02:14:07.986Z,4.10
2018-12-11T02:15:12.350Z,4.10
2018-12-11T02:16:16.408Z,4.10
2018-12-11T02:17:20.659Z,4.10
2018-12-11T02:18:24.850Z,4.10
2018-12-11T02:19:28.993Z,4.10
2018-12-11T02:20:33.864Z,4.10
2018-12-11T02:21:42.045Z,4.10
2018-12-11T02:22:45.383Z,4.10
2018-12-11T02:23:49.500Z,4.10
2018-12-11T02:24:53.648Z,4.10
2018-12-11T02:25:57.719Z,4.10
2018-12-11T02:27:01.879Z,4.10
2018-12-11T02:28:06.045Z,4.10
2018-12-11T02:29:10.302Z,4.10
2018-12-11T02:30:14.493Z,4.10
2018-12-11T02:31:18.722Z,4.10
2018-12-11T02:32:22.897Z,4.10
2018-12-11T02:33:27.105Z,4.10
2018-12-11T02:34:31.374Z,4.10
2018-12-11T02:35:35.411Z,4.10
2018-12-11T02:36:39.803Z,4.10
2018-12-11T02:37:43.879Z,4.00
2018-12-11T02:38:48.158Z,4.10
2018-12-11T02:39:52.612Z,4.10
2018-12-11T02:40:56.770Z,4.10
2018-12-11T02:42:01.010Z,4.10
2018-12-11T02:43:05.325Z,4.10
2018-12-11T02:44:09.461Z,4.10
2018-12-11T02:45:13.780Z,4.10
2018-12-11T02:46:17.875Z,4.10
2018-12-11T02:47:21.921Z,4.10
2018-12-11T02:48:25.969Z,4.10
2018-12-11T02:49:30.076Z,4.10
2018-12-11T02:50:34.119Z,4.10
2018-12-11T02:51:38.189Z,4.00
2018-12-11T02:52:42.313Z,4.10
2018-12-11T02:53:46.444Z,4.10
2018-12-11T02:54:50.576Z,4.10
2018-12-11T02:55:54.649Z,4.00
2018-12-11T02:56:58.791Z,4.10
2018-12-11T02:58:02.871Z,4.00
2018-12-11T02:59:06.957Z,4.00
2018-12-11T03:00:11.163Z,4.10
2018-12-11T03:01:17.358Z,4.10
2018-12-11T03:02:21.624Z,4.10
2018-12-11T03:03:26.340Z,4.10
2018-12-11T03:04:30.434Z,4.10
2018-12-11T03:05:34.631Z,4.10
2018-12-11T03:06:38.696Z,4.10
2018-12-11T03:07:42.766Z,4.10
2018-12-11T03:08:46.849Z,4.10
2018-12-11T03:09:51.072Z,4.10
2018-12-11T03:10:55.179Z,4.10
2018-12-11T03:11:59.295Z,4.10
2018-12-11T03:13:03.447Z,4.10
2018-12-11T03:14:07.728Z,4.10
2018-12-11T03:15:11.989Z,4.10
2018-12-11T03:16:16.080Z,4.10
2018-12-11T03:17:20.160Z,4.10
2018-12-11T03:18:24.365Z,4.00
2018-12-11T03:19:28.425Z,4.00
2018-12-11T03:20:32.500Z,4.00
2018-12-11T03:21:36.591Z,4.00
2018-12-11T03:22:41.010Z,4.00
2018-12-11T03:23:45.076Z,4.00
2018-12-11T03:24:49.333Z,4.00
2018-12-11T03:25:53.542Z,4.00
2018-12-11T03:26:57.637Z,4.00
2018-12-11T03:28:02.762Z,4.10
2018-12-11T03:29:06.893Z,4.00
2018-12-11T03:30:10.968Z,4.10
2018-12-11T03:31:36.664Z,4.00
2018-12-11T03:32:40.714Z,4.00
2018-12-11T03:33:44.829Z,4.10
2018-12-11T03:34:48.969Z,4.10
2018-12-11T03:35:53.069Z,4.10
2018-12-11T03:36:57.106Z,4.10
2018-12-11T03:38:01.147Z,4.10
2018-12-11T03:39:07.241Z,4.10
2018-12-11T03:40:11.881Z,4.10
2018-12-11T03:41:15.923Z,4.10
2018-12-11T03:42:20.007Z,4.10
2018-12-11T03:43:24.128Z,4.10
2018-12-11T03:44:28.240Z,4.10
2018-12-11T03:45:32.347Z,4.10
2018-12-11T03:46:36.413Z,4.10
2018-12-11T03:47:40.501Z,4.10
2018-12-11T03:48:44.637Z,4.10
2018-12-11T03:49:48.785Z,4.10
2018-12-11T03:50:53.012Z,4.10
2018-12-11T03:51:57.183Z,4.10
2018-12-11T03:53:01.385Z,4.10
2018-12-11T03:54:05.511Z,4.10
2018-12-11T03:55:09.769Z,4.10
2018-12-11T03:56:13.889Z,4.10
2018-12-11T03:57:18.048Z,4.10
2018-12-11T03:58:22.143Z,4.10
2018-12-11T03:59:26.253Z,4.10
2018-12-11T04:00:30.367Z,4.10
2018-12-11T04:01:34.703Z,4.00
2018-12-11T04:02:38.761Z,4.00
2018-12-11T04:03:42.858Z,4.00
2018-12-11T04:04:47.052Z,4.00
2018-12-11T04:05:51.360Z,4.00
2018-12-11T04:06:55.591Z,4.00
2018-12-11T04:07:59.952Z,4.00
2018-12-11T04:09:06.415Z,4.00
2018-12-11T04:10:11.512Z,4.00
2018-12-11T04:11:15.583Z,4.00
2018-12-11T04:12:19.863Z,4.00
2018-12-11T04:13:23.966Z,4.00
2018-12-11T04:14:28.252Z,4.00
2018-12-11T04:15:32.804Z,4.00
2018-12-11T04:16:36.820Z,4.00
2018-12-11T04:17:41.033Z,4.00
2018-12-11T04:18:45.118Z,4.00
2018-12-11T04:19:49.286Z,4.00
2018-12-11T04:20:53.417Z,4.00
2018-12-11T04:21:57.600Z,4.00
2018-12-11T04:23:01.674Z,4.00
2018-12-11T04:24:05.771Z,4.00
2018-12-11T04:25:11.948Z,4.00
2018-12-11T04:26:16.020Z,4.00
2018-12-11T04:27:20.103Z,4.00
2018-12-11T04:28:24.277Z,4.00
2018-12-11T04:29:28.395Z,4.00
2018-12-11T04:30:32.504Z,4.00
2018-12-11T04:31:36.648Z,4.10
2018-12-11T04:32:41.804Z,4.10
2018-12-11T04:33:46.045Z,4.00
2018-12-11T04:34:50.149Z,4.00
2018-12-11T04:35:54.312Z,4.00
2018-12-11T04:36:58.459Z,4.00
2018-12-11T04:38:02.629Z,4.00
2018-12-11T04:39:07.798Z,4.00
2018-12-11T04:40:11.926Z,4.10
2018-12-11T04:41:16.028Z,4.10
2018-12-11T04:42:20.282Z,4.10
2018-12-11T04:43:24.467Z,4.10
2018-12-11T04:44:28.609Z,4.10
2018-12-11T04:45:32.692Z,4.10
2018-12-11T04:46:36.908Z,4.00
2018-12-11T04:47:41.087Z,4.00
2018-12-11T04:48:45.142Z,4.10
2018-12-11T04:49:50.462Z,4.10
2018-12-11T04:50:54.502Z,4.10
2018-12-11T04:51:58.827Z,4.10
2018-12-11T04:53:02.895Z,4.00
2018-12-11T04:54:07.486Z,4.00
2018-12-11T04:55:11.670Z,4.10
2018-12-11T04:56:15.773Z,4.00
2018-12-11T04:57:19.966Z,4.00
2018-12-11T04:58:24.025Z,4.10
2018-12-11T04:59:28.115Z,4.10
2018-12-11T05:00:32.419Z,4.10
2018-12-11T05:01:36.585Z,4.10
2018-12-11T05:02:40.722Z,4.10
2018-12-11T05:03:44.778Z,4.10
2018-12-11T05:04:48.929Z,4.10
2018-12-11T05:05:53.036Z,4.10
2018-12-11T05:06:57.130Z,4.10
2018-12-11T05:08:03.352Z,4.10
2018-12-11T05:09:07.645Z,4.10
2018-12-11T05:10:11.720Z,4.10
2018-12-11T05:11:15.741Z,4.10
2018-12-11T05:12:19.922Z,4.20
2018-12-11T05:13:24.000Z,4.20
2018-12-11T05:14:28.181Z,4.20
2018-12-11T05:15:32.335Z,4.20
2018-12-11T05:16:36.453Z,4.20
2018-12-11T05:17:40.517Z,4.20
2018-12-11T05:18:44.629Z,4.20
2018-12-11T05:19:48.712Z,4.30
2018-12-11T05:20:52.887Z,4.30
2018-12-11T05:21:57.004Z,4.30
2018-12-11T05:23:01.240Z,4.30
2018-12-11T05:24:05.274Z,4.30
2018-12-11T05:25:09.460Z,4.30
2018-12-11T05:26:13.506Z,4.40
2018-12-11T05:27:17.586Z,4.40
2018-12-11T05:28:21.648Z,4.30
2018-12-11T05:29:25.685Z,4.40
2018-12-11T05:30:29.782Z,4.40
2018-12-11T05:31:33.862Z,4.40
2018-12-11T05:32:38.022Z,4.40
2018-12-11T05:33:42.189Z,4.40
2018-12-11T05:34:46.358Z,4.40
2018-12-11T05:35:50.399Z,4.40
2018-12-11T05:36:54.775Z,4.40
2018-12-11T05:37:59.162Z,4.40
2018-12-11T05:39:04.214Z,4.40
2018-12-11T05:40:09.442Z,4.40
2018-12-11T05:41:13.630Z,4.40
2018-12-11T05:42:17.755Z,4.40
2018-12-11T05:43:22.057Z,4.40
2018-12-11T05:44:26.130Z,4.40
2018-12-11T05:45:30.203Z,4.40
2018-12-11T05:46:34.363Z,4.40
2018-12-11T05:47:38.509Z,4.40
2018-12-11T05:48:42.785Z,4.40
2018-12-11T05:49:46.899Z,4.40
2018-12-11T05:50:50.959Z,4.40
2018-12-11T05:51:55.144Z,4.50
2018-12-11T05:52:59.186Z,4.50
2018-12-11T05:54:03.386Z,4.50
2018-12-11T05:55:07.574Z,4.50
2018-12-11T05:56:11.671Z,4.50
2018-12-11T05:57:15.764Z,4.50
2018-12-11T05:58:19.843Z,4.50
2018-12-11T05:59:23.912Z,4.50
2018-12-11T06:00:28.105Z,4.50
2018-12-11T06:01:32.175Z,4.50
2018-12-11T06:02:36.210Z,4.50
2018-12-11T06:03:40.353Z,4.50
2018-12-11T06:04:44.365Z,4.50
2018-12-11T06:05:48.468Z,4.50
2018-12-11T06:06:52.519Z,4.50
2018-12-11T06:07:56.565Z,4.50
2018-12-11T06:09:00.706Z,4.50
2018-12-11T06:10:08.700Z,4.40
2018-12-11T06:11:12.779Z,4.50
2018-12-11T06:12:16.824Z,4.50
2018-12-11T06:13:20.914Z,4.50
2018-12-11T06:14:25.250Z,4.50
2018-12-11T06:15:29.387Z,4.40
2018-12-11T06:16:33.659Z,4.50
2018-12-11T06:17:37.747Z,4.40
2018-12-11T06:18:41.878Z,4.50
2018-12-11T06:19:46.011Z,4.40
2018-12-11T06:20:50.150Z,4.40
2018-12-11T06:21:54.343Z,4.40
2018-12-11T06:22:59.075Z,4.40
2018-12-11T06:24:03.178Z,4.40
2018-12-11T06:25:07.438Z,4.40
2018-12-11T06:26:12.390Z,4.40
2018-12-11T06:27:16.491Z,4.40
2018-12-11T06:28:20.582Z,4.40
2018-12-11T06:29:24.699Z,4.40
2018-12-11T06:30:28.774Z,4.40
2018-12-11T06:31:32.923Z,4.40
2018-12-11T06:32:38.349Z,4.40
2018-12-11T06:33:42.855Z,4.40
2018-12-11T06:34:48.070Z,4.30
2018-12-11T06:35:52.242Z,4.30
2018-12-11T06:36:56.303Z,4.30
2018-12-11T06:38:00.385Z,4.30
2018-12-11T06:39:06.421Z,4.30
2018-12-11T06:40:11.787Z,4.30
2018-12-11T06:41:19.578Z,4.30
2018-12-11T06:42:23.753Z,4.30
2018-12-11T06:43:27.817Z,4.30
2018-12-11T06:44:41.973Z,4.30
2018-12-11T06:45:46.075Z,4.30
2018-12-11T06:46:50.117Z,4.30
2018-12-11T06:47:54.182Z,4.30
2018-12-11T06:48:58.193Z,4.30
2018-12-11T06:50:02.474Z,4.30
2018-12-11T06:51:06.520Z,4.30
2018-12-11T06:52:10.581Z,4.30
2018-12-11T06:53:14.648Z,4.30
2018-12-11T06:54:18.701Z,4.30
2018-12-11T06:55:22.799Z,4.30
2018-12-11T06:56:26.832Z,4.30
2018-12-11T06:57:30.841Z,4.30
2018-12-11T06:58:34.835Z,4.30
2018-12-11T06:59:38.881Z,4.30
2018-12-11T07:00:42.923Z,4.30
2018-12-11T07:01:47.029Z,4.30
2018-12-11T07:02:51.033Z,4.30
2018-12-11T07:03:55.087Z,4.30
2018-12-11T07:04:59.137Z,4.30
2018-12-11T07:06:03.238Z,4.30
2018-12-11T07:07:07.283Z,4.30
2018-12-11T07:08:15.625Z,4.30
2018-12-11T07:09:19.652Z,4.30
2018-12-11T07:10:23.701Z,4.30
2018-12-11T07:11:27.769Z,4.30
2018-12-11T07:12:31.806Z,4.30
2018-12-11T07:13:35.864Z,4.30
2018-12-11T07:14:39.907Z,4.30
2018-12-11T07:15:43.967Z,4.30
2018-12-11T07:16:48.040Z,4.30
2018-12-11T07:17:52.085Z,4.30
2018-12-11T07:18:56.133Z,4.30
2018-12-11T07:20:00.212Z,4.30
2018-12-11T07:21:04.419Z,4.30
2018-12-11T07:22:08.452Z,4.30
2018-12-11T07:23:12.482Z,4.30
2018-12-11T07:24:16.522Z,4.20
2018-12-11T07:25:20.618Z,4.20
2018-12-11T07:26:24.685Z,4.20
2018-12-11T07:27:28.747Z,4.20
2018-12-11T07:28:32.775Z,4.20
2018-12-11T07:29:36.813Z,4.20
2018-12-11T07:30:40.848Z,4.20
2018-12-11T07:31:44.863Z,4.20
2018-12-11T07:32:48.958Z,4.20
2018-12-11T07:33:52.981Z,4.20
2018-12-11T07:34:57.028Z,4.20
2018-12-11T07:36:01.091Z,4.20
2018-12-11T07:37:05.403Z,4.20
2018-12-11T07:38:09.480Z,4.20
2018-12-11T07:39:13.507Z,4.20
2018-12-11T07:40:17.597Z,4.10
2018-12-11T07:41:21.623Z,4.20
2018-12-11T07:42:25.676Z,4.10
2018-12-11T07:43:29.706Z,4.10
2018-12-11T07:44:33.767Z,4.10
2018-12-11T07:45:37.827Z,4.10
2018-12-11T07:46:41.882Z,4.10
2018-12-11T07:47:45.904Z,4.10
2018-12-11T07:48:49.899Z,4.10
2018-12-11T07:49:53.934Z,4.10
2018-12-11T07:50:58.018Z,4.10
2018-12-11T07:52:02.018Z,4.10
2018-12-11T07:53:06.606Z,4.10
2018-12-11T07:54:10.867Z,4.10
2018-12-11T07:55:14.973Z,4.10
2018-12-11T07:56:19.000Z,4.10
2018-12-11T07:57:23.204Z,4.10
2018-12-11T07:58:27.322Z,4.10
2018-12-11T07:59:31.346Z,4.20
2018-12-11T08:00:35.386Z,4.10
2018-12-11T08:01:39.403Z,4.20
2018-12-11T08:02:43.566Z,4.20
2018-12-11T08:03:47.706Z,4.20
2018-12-11T08:04:51.761Z,4.20
2018-12-11T08:05:55.871Z,4.20
2018-12-11T08:06:59.891Z,4.20
2018-12-11T08:08:03.959Z,4.20
2018-12-11T08:09:08.131Z,4.20
2018-12-11T08:10:13.431Z,4.20
2018-12-11T08:11:17.539Z,4.20
2018-12-11T08:12:21.536Z,4.20
2018-12-11T08:13:26.658Z,4.20
2018-12-11T08:14:30.713Z,4.20
2018-12-11T08:15:34.817Z,4.30
2018-12-11T08:16:39.010Z,4.30
2018-12-11T08:17:43.045Z,4.30
2018-12-11T08:18:47.059Z,4.30
2018-12-11T08:19:51.119Z,4.30
2018-12-11T08:20:55.149Z,4.30
2018-12-11T08:21:59.288Z,4.40
2018-12-11T08:23:03.334Z,4.40
2018-12-11T08:24:07.444Z,4.50
2018-12-11T08:25:11.473Z,4.50
2018-12-11T08:26:15.466Z,4.60
2018-12-11T08:27:19.535Z,4.60
2018-12-11T08:28:23.562Z,4.70
2018-12-11T08:29:27.590Z,4.80
2018-12-11T08:30:31.600Z,4.90
2018-12-11T08:31:35.587Z,5.10
2018-12-11T08:32:39.632Z,5.10
2018-12-11T08:33:43.649Z,5.20
2018-12-11T08:34:47.749Z,5.40
2018-12-11T08:35:51.758Z,5.50
2018-12-11T08:36:55.771Z,5.60
2018-12-11T08:37:59.824Z,5.80
2018-12-11T08:39:05.388Z,5.80
2018-12-11T08:40:11.573Z,5.90
2018-12-11T08:41:15.597Z,5.90
2018-12-11T08:42:19.628Z,6.00
2018-12-11T08:43:23.743Z,6.00
2018-12-11T08:44:27.791Z,6.00
2018-12-11T08:45:31.847Z,6.10
2018-12-11T08:46:35.862Z,6.10
2018-12-11T08:47:39.901Z,6.10
2018-12-11T08:48:43.903Z,6.00
2018-12-11T08:49:47.940Z,6.00
2018-12-11T08:50:51.982Z,5.90
2018-12-11T08:51:55.982Z,5.90
2018-12-11T08:53:00.074Z,6.00
2018-12-11T08:54:04.115Z,6.00
2018-12-11T08:55:08.159Z,6.00
2018-12-11T08:56:12.298Z,5.90
2018-12-11T08:57:16.355Z,5.90
2018-12-11T08:58:20.371Z,5.90
2018-12-11T08:59:24.393Z,5.90
2018-12-11T09:00:28.411Z,5.90
2018-12-11T09:01:32.549Z,5.80
2018-12-11T09:02:36.570Z,5.80
2018-12-11T09:03:40.741Z,5.70
2018-12-11T09:04:44.788Z,5.70
2018-12-11T09:05:48.808Z,5.70
2018-12-11T09:06:52.833Z,5.70
2018-12-11T09:07:56.929Z,5.70
2018-12-11T09:09:00.941Z,5.70
2018-12-11T09:10:07.895Z,5.80
2018-12-11T09:11:12.226Z,5.80
2018-12-11T09:12:16.368Z,5.80
2018-12-11T09:13:20.396Z,6.00
2018-12-11T09:14:24.700Z,6.10
2018-12-11T09:15:28.889Z,6.10
2018-12-11T09:16:32.959Z,6.10
2018-12-11T09:17:36.986Z,6.00
2018-12-11T09:18:41.354Z,5.80
2018-12-11T09:19:45.560Z,5.80
2018-12-11T09:20:49.609Z,5.70
2018-12-11T09:21:53.637Z,5.60
2018-12-11T09:22:57.769Z,5.50
2018-12-11T09:24:01.843Z,5.50
2018-12-11T09:25:06.864Z,5.50
2018-12-11T09:26:11.182Z,5.50
2018-12-11T09:27:15.710Z,5.50
2018-12-11T09:28:19.816Z,5.50
2018-12-11T09:29:23.864Z,5.60
2018-12-11T09:30:28.126Z,5.70
2018-12-11T09:31:32.204Z,5.80
2018-12-11T09:32:36.295Z,5.90
2018-12-11T09:33:40.377Z,6.10
2018-12-11T09:34:44.421Z,6.30
2018-12-11T09:35:48.756Z,6.40
2018-12-11T09:36:52.792Z,6.60
2018-12-11T09:37:56.979Z,6.70
2018-12-11T09:39:01.102Z,6.90
2018-12-11T09:40:07.301Z,7.10
2018-12-11T09:41:11.484Z,7.30
2018-12-11T09:42:15.564Z,7.20
2018-12-11T09:43:19.677Z,7.30
2018-12-11T09:44:23.732Z,7.30
2018-12-11T09:45:27.845Z,7.30
2018-12-11T09:46:31.973Z,7.10
2018-12-11T09:47:35.999Z,6.90
2018-12-11T09:48:40.014Z,6.80
2018-12-11T09:49:44.095Z,6.70
2018-12-11T09:50:48.190Z,6.60
2018-12-11T09:51:52.267Z,6.50
2018-12-11T09:52:56.333Z,6.40
2018-12-11T09:54:00.487Z,6.40
2018-12-11T09:55:04.746Z,6.30
2018-12-11T09:56:08.800Z,6.20
2018-12-11T09:57:13.060Z,6.20
2018-12-11T09:58:17.174Z,6.20
2018-12-11T09:59:23.543Z,6.20
2018-12-11T10:00:27.710Z,6.20
2018-12-11T10:01:31.818Z,6.20
2018-12-11T10:02:35.940Z,6.30
2018-12-11T10:03:40.148Z,6.40
2018-12-11T10:04:44.333Z,6.30
2018-12-11T10:05:48.394Z,6.30
2018-12-11T10:06:52.444Z,6.20
2018-12-11T10:07:56.505Z,6.00
2018-12-11T10:09:04.481Z,6.00
2018-12-11T10:10:10.530Z,6.00
2018-12-11T10:11:14.933Z,6.00
2018-12-11T10:12:18.977Z,5.90
2018-12-11T10:13:23.002Z,5.90
2018-12-11T10:14:27.067Z,5.90
2018-12-11T10:15:31.138Z,5.80
2018-12-11T10:16:35.301Z,5.80
2018-12-11T10:17:39.369Z,5.80
2018-12-11T10:18:43.389Z,5.80
2018-12-11T10:19:47.511Z,5.90
2018-12-11T10:20:51.606Z,5.90
2018-12-11T10:21:56.916Z,5.90
2018-12-11T10:23:02.097Z,6.00
2018-12-11T10:24:06.259Z,6.10
2018-12-11T10:25:10.403Z,6.10
2018-12-11T10:26:14.539Z,6.20
2018-12-11T10:27:18.672Z,6.40
2018-12-11T10:28:22.806Z,6.50
2018-12-11T10:29:26.879Z,6.70
2018-12-11T10:30:36.173Z,6.80
2018-12-11T10:31:40.248Z,6.80
2018-12-11T10:32:48.543Z,6.80
2018-12-11T10:33:52.643Z,6.70
2018-12-11T10:34:56.712Z,6.80
2018-12-11T10:36:00.770Z,6.80
2018-12-11T10:37:04.886Z,6.80
2018-12-11T10:38:08.986Z,6.80
2018-12-11T10:39:13.190Z,6.80
2018-12-11T10:40:17.497Z,6.90
2018-12-11T10:41:21.582Z,6.90
2018-12-11T10:42:25.596Z,6.80
2018-12-11T10:43:29.718Z,6.80
2018-12-11T10:44:33.761Z,6.80
2018-12-11T10:45:37.792Z,6.60
2018-12-11T10:46:41.873Z,6.60
2018-12-11T10:47:46.420Z,6.60
2018-12-11T10:48:50.884Z,6.60
2018-12-11T10:49:54.895Z,6.70
2018-12-11T10:50:59.055Z,6.80
2018-12-11T10:52:03.363Z,6.90
2018-12-11T10:53:07.398Z,6.90
2018-12-11T10:54:11.506Z,7.00
2018-12-11T10:55:15.771Z,7.00
2018-12-11T10:56:19.912Z,7.10
2018-12-11T10:57:23.969Z,7.10
2018-12-11T10:58:27.988Z,7.00
2018-12-11T10:59:32.065Z,7.10
2018-12-11T11:00:41.570Z,7.20
2018-12-11T11:01:46.736Z,7.30
2018-12-11T11:02:56.073Z,7.30
2018-12-11T11:04:00.347Z,7.40
2018-12-11T11:05:04.998Z,7.50
2018-12-11T11:06:10.045Z,7.60
2018-12-11T11:07:14.203Z,7.70
2018-12-11T11:08:18.297Z,7.90
2018-12-11T11:09:22.340Z,7.80
2018-12-11T11:10:26.373Z,7.90
2018-12-11T11:11:30.466Z,7.90
2018-12-11T11:12:34.527Z,7.90
2018-12-11T11:13:38.613Z,8.00
2018-12-11T11:14:42.658Z,8.10
2018-12-11T11:15:46.793Z,8.10
2018-12-11T11:16:50.867Z,8.10
2018-12-11T11:17:54.915Z,8.20
2018-12-11T11:18:59.025Z,8.30
2018-12-11T11:20:03.279Z,8.30
2018-12-11T11:21:07.591Z,8.40
2018-12-11T11:22:11.976Z,8.30
2018-12-11T11:23:16.357Z,8.30
2018-12-11T11:24:20.463Z,8.40
2018-12-11T11:25:24.504Z,8.40
2018-12-11T11:26:29.641Z,8.40
2018-12-11T11:27:33.715Z,8.50
2018-12-11T11:28:37.805Z,8.50
2018-12-11T11:29:41.877Z,8.60
2018-12-11T11:30:45.898Z,8.60
2018-12-11T11:31:49.918Z,8.70
2018-12-11T11:32:53.959Z,8.70
2018-12-11T11:33:58.712Z,8.60
2018-12-11T11:35:02.902Z,8.80
2018-12-11T11:36:06.999Z,8.70
2018-12-11T11:37:11.051Z,8.70
2018-12-11T11:38:15.157Z,8.70
2018-12-11T11:39:19.234Z,8.80
2018-12-11T11:40:23.273Z,8.80
2018-12-11T11:41:27.339Z,8.90
2018-12-11T11:42:31.536Z,8.90
2018-12-11T11:43:35.537Z,8.90
2018-12-11T11:44:40.142Z,8.90
2018-12-11T11:45:44.260Z,8.70
2018-12-11T11:46:48.758Z,8.70
2018-12-11T11:47:52.790Z,8.80
2018-12-11T11:48:57.375Z,8.70
2018-12-11T11:50:01.531Z,8.60
2018-12-11T11:51:05.595Z,8.50
2018-12-11T11:52:09.685Z,8.40
2018-12-11T11:53:14.069Z,8.30
2018-12-11T11:54:18.231Z,8.20
2018-12-11T11:55:22.463Z,8.10
2018-12-11T11:56:26.489Z,8.20
2018-12-11T11:57:30.716Z,8.10
2018-12-11T11:58:34.966Z,8.10
2018-12-11T11:59:39.036Z,8.00
2018-12-11T12:00:43.187Z,8.00
2018-12-11T12:01:47.324Z,8.00
2018-12-11T12:02:51.398Z,8.00
2018-12-11T12:03:55.423Z,8.00
2018-12-11T12:04:59.484Z,8.00
2018-12-11T12:06:03.595Z,8.00
2018-12-11T12:07:07.723Z,7.90
2018-12-11T12:08:11.793Z,7.90
2018-12-11T12:09:17.941Z,7.90
2018-12-11T12:10:21.997Z,7.90
2018-12-11T12:11:26.008Z,7.80
2018-12-11T12:12:30.088Z,7.80
2018-12-11T12:13:34.147Z,7.70
2018-12-11T12:14:38.187Z,7.70
2018-12-11T12:15:42.197Z,7.70
2018-12-11T12:16:46.277Z,7.70
2018-12-11T12:17:50.294Z,7.70
2018-12-11T12:18:54.308Z,7.70
2018-12-11T12:19:58.345Z,7.80
2018-12-11T12:21:02.482Z,7.90
2018-12-11T12:22:06.517Z,8.00
2018-12-11T12:23:10.618Z,8.10
2018-12-11T12:24:14.633Z,8.00
2018-12-11T12:25:18.740Z,8.20
2018-12-11T12:26:22.837Z,8.30
2018-12-11T12:27:26.907Z,8.30
2018-12-11T12:28:30.943Z,8.40
2018-12-11T12:29:35.045Z,8.30
2018-12-11T12:30:39.300Z,8.20
2018-12-11T12:31:43.628Z,8.20
2018-12-11T12:32:47.758Z,8.20
2018-12-11T12:33:51.821Z,8.10
2018-12-11T12:34:55.865Z,8.10
2018-12-11T12:35:59.921Z,8.10
2018-12-11T12:37:03.988Z,8.10
2018-12-11T12:38:08.115Z,8.20
2018-12-11T12:39:12.170Z,8.30
2018-12-11T12:40:16.595Z,8.40
2018-12-11T12:41:20.692Z,8.50
2018-12-11T12:42:24.932Z,8.70
2018-12-11T12:43:29.050Z,8.90
2018-12-11T12:44:33.052Z,9.10
2018-12-11T12:45:38.593Z,9.10
2018-12-11T12:46:42.738Z,9.30
2018-12-11T12:47:46.824Z,9.40
2018-12-11T12:48:50.912Z,9.60
2018-12-11T12:49:54.938Z,9.70
2018-12-11T12:50:58.983Z,9.60
2018-12-11T12:52:03.046Z,9.60
2018-12-11T12:53:07.159Z,9.40
2018-12-11T12:54:11.254Z,9.20
2018-12-11T12:55:15.332Z,9.00
2018-12-11T12:56:29.255Z,9.00
2018-12-11T12:57:33.476Z,9.00
2018-12-11T12:58:37.662Z,8.80
2018-12-11T12:59:41.710Z,8.80
2018-12-11T13:00:45.840Z,8.70
2018-12-11T13:01:49.963Z,8.70
2018-12-11T13:02:54.100Z,8.70
2018-12-11T13:03:58.387Z,8.70
2018-12-11T13:05:03.946Z,8.60
2018-12-11T13:06:08.206Z,8.60
2018-12-11T13:07:18.039Z,8.60
2018-12-11T13:08:22.106Z,8.40
2018-12-11T13:09:26.162Z,8.40
2018-12-11T13:10:30.309Z,8.40
2018-12-11T13:11:34.731Z,8.40
2018-12-11T13:12:39.068Z,8.30
2018-12-11T13:13:43.140Z,8.30
2018-12-11T13:14:47.298Z,8.30
2018-12-11T13:15:51.479Z,8.30
2018-12-11T13:16:55.603Z,8.20
2018-12-11T13:17:59.824Z,8.30
2018-12-11T13:19:04.282Z,8.20
2018-12-11T13:20:08.565Z,8.20
2018-12-11T13:21:13.025Z,8.20
2018-12-11T13:22:17.180Z,8.20
2018-12-11T13:23:21.368Z,8.20
2018-12-11T13:24:25.560Z,8.20
2018-12-11T13:25:29.642Z,8.10
2018-12-11T13:26:33.836Z,8.10
2018-12-11T13:27:38.061Z,8.10
2018-12-11T13:28:42.139Z,8.10
2018-12-11T13:29:46.247Z,8.10
2018-12-11T13:30:50.391Z,8.10
2018-12-11T13:31:54.556Z,8.10
2018-12-11T13:32:58.769Z,8.10
2018-12-11T13:34:02.967Z,8.10
2018-12-11T13:35:07.244Z,8.10
2018-12-11T13:36:11.680Z,8.10
2018-12-11T13:37:15.856Z,8.00
2018-12-11T13:38:20.629Z,8.00
2018-12-11T13:39:24.745Z,8.10
2018-12-11T13:40:28.830Z,8.00
2018-12-11T13:41:33.097Z,8.10
2018-12-11T13:42:37.291Z,8.10
2018-12-11T13:43:41.593Z,8.10
2018-12-11T13:44:45.684Z,8.10
2018-12-11T13:45:50.771Z,8.10
2018-12-11T13:46:55.267Z,8.00
2018-12-11T13:47:59.367Z,8.10
2018-12-11T13:49:03.578Z,8.10
2018-12-11T13:50:07.969Z,8.00
2018-12-11T13:51:12.169Z,8.00
2018-12-11T13:52:16.258Z,8.00
2018-12-11T13:53:20.335Z,8.00
2018-12-11T13:54:24.435Z,8.00
2018-12-11T13:55:28.501Z,8.00
2018-12-11T13:56:32.837Z,8.00
2018-12-11T13:57:37.038Z,8.00
2018-12-11T13:58:41.221Z,7.90
2018-12-11T13:59:45.537Z,7.90
2018-12-11T14:00:49.828Z,7.90
2018-12-11T14:01:54.078Z,7.90
2018-12-11T14:02:58.296Z,7.90
2018-12-11T14:04:02.460Z,7.90
2018-12-11T14:05:06.801Z,7.90
2018-12-11T14:06:12.394Z,7.90
2018-12-11T14:07:16.463Z,7.90
2018-12-11T14:08:20.599Z,7.90
2018-12-11T14:09:30.022Z,7.80
2018-12-11T14:10:34.216Z,7.80
2018-12-11T14:11:38.553Z,7.80
2018-12-11T14:12:42.660Z,7.80
2018-12-11T14:13:46.891Z,7.80
2018-12-11T14:14:51.055Z,7.80
2018-12-11T14:15:55.397Z,7.70
2018-12-11T14:16:59.493Z,7.80